sensor_id;sensor_type;location;lat;lon;timestamp;pressure;altitude;pressure_sealevel;temperature;humidity
13209;BME280;6669;42.678;23.332;2023-07-24T00:00:47;94773.63;;;21.06;100.00
13209;BME280;6669;42.678;23.332;2023-07-24T00:03:15;94776.16;;;21.01;100.00
13209;BME280;6669;42.678;23.332;2023-07-24T00:05:43;94778.25;;;20.99;100.00
13209;BME280;6669;42.678;23.332;2023-07-24T00:08:11;94784.34;;;20.99;100.00
13209;BME280;6669;42.678;23.332;2023-07-24T00:10:40;94775.13;;;21.02;100.00
13209;BME280;6669;42.678;23.332;2023-07-24T00:13:08;94764.81;;;20.88;100.00
13209;BME280;6669;42.678;23.332;2023-07-24T00:15:39;94777.19;;;21.00;100.00
13209;BME280;6669;42.678;23.332;2023-07-24T00:18:07;94765.25;;;20.97;100.00
13209;BME280;6669;42.678;23.332;2023-07-24T00:20:35;94766.31;;;20.84;100.00
13209;BME280;6669;42.678;23.332;2023-07-24T00:23:03;94769.56;;;20.74;100.00
13209;BME280;6669;42.678;23.332;2023-07-24T00:25:31;94776.34;;;20.82;100.00
13209;BME280;6669;42.678;23.332;2023-07-24T00:28:00;94779.91;;;20.76;100.00
13209;BME280;6669;42.678;23.332;2023-07-24T00:30:28;94780.94;;;20.75;100.00
13209;BME280;6669;42.678;23.332;2023-07-24T00:32:56;94775.28;;;20.71;100.00
13209;BME280;6669;42.678;23.332;2023-07-24T00:35:25;94767.38;;;20.71;100.00
13209;BME280;6669;42.678;23.332;2023-07-24T00:37:53;94767.38;;;20.71;100.00
13209;BME280;6669;42.678;23.332;2023-07-24T00:40:21;94767.25;;;20.66;100.00
13209;BME280;6669;42.678;23.332;2023-07-24T00:42:49;94767.91;;;20.62;100.00
13209;BME280;6669;42.678;23.332;2023-07-24T00:45:19;94771.81;;;20.59;100.00
13209;BME280;6669;42.678;23.332;2023-07-24T00:47:47;94772.06;;;20.57;100.00
13209;BME280;6669;42.678;23.332;2023-07-24T00:50:15;94770.69;;;20.55;100.00
13209;BME280;6669;42.678;23.332;2023-07-24T00:52:43;94770.34;;;20.51;100.00
13209;BME280;6669;42.678;23.332;2023-07-24T00:55:12;94773.09;;;20.56;100.00
13209;BME280;6669;42.678;23.332;2023-07-24T00:57:43;94765.19;;;20.45;100.00
13209;BME280;6669;42.678;23.332;2023-07-24T01:00:12;94771.25;;;20.45;100.00
13209;BME280;6669;42.678;23.332;2023-07-24T01:02:42;94765.53;;;20.36;100.00
13209;BME280;6669;42.678;23.332;2023-07-24T01:05:13;94764.03;;;20.29;100.00
13209;BME280;6669;42.678;23.332;2023-07-24T01:07:42;94761.75;;;20.20;100.00
13209;BME280;6669;42.678;23.332;2023-07-24T01:10:10;94755.66;;;20.20;100.00
13209;BME280;6669;42.678;23.332;2023-07-24T01:12:45;94753.72;;;20.15;100.00
13209;BME280;6669;42.678;23.332;2023-07-24T01:15:16;94761.84;;;20.14;100.00
13209;BME280;6669;42.678;23.332;2023-07-24T01:17:54;94766.31;;;20.13;100.00
13209;BME280;6669;42.678;23.332;2023-07-24T01:20:26;94759.44;;;20.12;100.00
13209;BME280;6669;42.678;23.332;2023-07-24T01:23:10;94756.78;;;20.00;100.00
13209;BME280;6669;42.678;23.332;2023-07-24T01:25:53;94745.53;;;19.93;100.00
13209;BME280;6669;42.678;23.332;2023-07-24T01:28:22;94740.72;;;19.90;100.00
13209;BME280;6669;42.678;23.332;2023-07-24T01:30:50;94749.28;;;19.85;100.00
13209;BME280;6669;42.678;23.332;2023-07-24T01:33:18;94742.84;;;19.81;100.00
13209;BME280;6669;42.678;23.332;2023-07-24T01:35:48;94741.09;;;19.75;100.00
13209;BME280;6669;42.678;23.332;2023-07-24T01:38:17;94738.69;;;19.73;100.00
13209;BME280;6669;42.678;23.332;2023-07-24T01:40:45;94739.59;;;19.67;100.00
13209;BME280;6669;42.678;23.332;2023-07-24T01:43:15;94751.66;;;19.75;100.00
13209;BME280;6669;42.678;23.332;2023-07-24T01:45:43;94774.56;;;19.63;100.00
13209;BME280;6669;42.678;23.332;2023-07-24T01:48:11;94785.91;;;19.63;100.00
13209;BME280;6669;42.678;23.332;2023-07-24T01:50:39;94786.28;;;19.67;100.00
13209;BME280;6669;42.678;23.332;2023-07-24T01:53:07;94771.59;;;19.71;100.00
13209;BME280;6669;42.678;23.332;2023-07-24T01:55:36;94764.34;;;19.66;100.00
13209;BME280;6669;42.678;23.332;2023-07-24T01:58:04;94754.88;;;19.65;100.00
13209;BME280;6669;42.678;23.332;2023-07-24T02:00:33;94763.09;;;19.69;100.00
13209;BME280;6669;42.678;23.332;2023-07-24T02:03:01;94768.03;;;19.65;100.00
13209;BME280;6669;42.678;23.332;2023-07-24T02:05:29;94763.22;;;19.62;100.00
13209;BME280;6669;42.678;23.332;2023-07-24T02:07:57;94768.25;;;19.64;100.00
13209;BME280;6669;42.678;23.332;2023-07-24T02:10:25;94764.09;;;19.56;100.00
13209;BME280;6669;42.678;23.332;2023-07-24T02:12:53;94759.84;;;19.55;100.00
13209;BME280;6669;42.678;23.332;2023-07-24T02:15:21;94754.16;;;19.58;100.00
13209;BME280;6669;42.678;23.332;2023-07-24T02:17:50;94751.25;;;19.48;100.00
13209;BME280;6669;42.678;23.332;2023-07-24T02:20:18;94763.75;;;19.52;100.00
13209;BME280;6669;42.678;23.332;2023-07-24T02:22:46;94749.75;;;19.52;100.00
13209;BME280;6669;42.678;23.332;2023-07-24T02:25:15;94757.56;;;19.58;100.00
13209;BME280;6669;42.678;23.332;2023-07-24T02:27:43;94755.03;;;19.52;100.00
13209;BME280;6669;42.678;23.332;2023-07-24T02:30:11;94762.16;;;19.51;100.00
13209;BME280;6669;42.678;23.332;2023-07-24T02:32:39;94758.34;;;19.47;100.00
13209;BME280;6669;42.678;23.332;2023-07-24T02:35:09;94750.66;;;19.46;100.00
13209;BME280;6669;42.678;23.332;2023-07-24T02:37:38;94748.84;;;19.46;100.00
13209;BME280;6669;42.678;23.332;2023-07-24T02:40:07;94744.59;;;19.45;100.00
13209;BME280;6669;42.678;23.332;2023-07-24T02:42:35;94748.56;;;19.36;100.00
13209;BME280;6669;42.678;23.332;2023-07-24T02:45:04;94753.81;;;19.36;100.00
13209;BME280;6669;42.678;23.332;2023-07-24T02:47:37;94758.53;;;19.34;100.00
13209;BME280;6669;42.678;23.332;2023-07-24T02:50:06;94757.88;;;19.38;100.00
13209;BME280;6669;42.678;23.332;2023-07-24T02:52:35;94759.09;;;19.36;100.00
13209;BME280;6669;42.678;23.332;2023-07-24T02:55:04;94761.41;;;19.32;100.00
13209;BME280;6669;42.678;23.332;2023-07-24T02:57:32;94753.78;;;19.24;100.00
13209;BME280;6669;42.678;23.332;2023-07-24T03:00:00;94754.75;;;19.30;100.00
13209;BME280;6669;42.678;23.332;2023-07-24T03:02:29;94755.53;;;19.30;100.00
13209;BME280;6669;42.678;23.332;2023-07-24T03:04:58;94746.09;;;19.22;100.00
13209;BME280;6669;42.678;23.332;2023-07-24T03:07:26;94742.53;;;19.17;100.00
13209;BME280;6669;42.678;23.332;2023-07-24T03:09:55;94745.09;;;19.23;100.00
13209;BME280;6669;42.678;23.332;2023-07-24T03:12:24;94735.09;;;19.25;100.00
13209;BME280;6669;42.678;23.332;2023-07-24T03:14:52;94740.59;;;19.24;100.00
13209;BME280;6669;42.678;23.332;2023-07-24T03:17:20;94751.47;;;19.16;100.00
13209;BME280;6669;42.678;23.332;2023-07-24T03:19:48;94753.28;;;19.15;100.00
13209;BME280;6669;42.678;23.332;2023-07-24T03:22:16;94744.59;;;19.15;100.00
13209;BME280;6669;42.678;23.332;2023-07-24T03:24:44;94741.59;;;19.11;100.00
13209;BME280;6669;42.678;23.332;2023-07-24T03:27:14;94747.09;;;19.09;100.00
13209;BME280;6669;42.678;23.332;2023-07-24T03:29:42;94750.38;;;19.05;100.00
13209;BME280;6669;42.678;23.332;2023-07-24T03:32:10;94757.13;;;19.01;100.00
13209;BME280;6669;42.678;23.332;2023-07-24T03:34:38;94764.00;;;19.02;100.00
13209;BME280;6669;42.678;23.332;2023-07-24T03:37:06;94756.09;;;19.02;100.00
13209;BME280;6669;42.678;23.332;2023-07-24T03:39:33;94756.63;;;18.92;100.00
13209;BME280;6669;42.678;23.332;2023-07-24T03:42:02;94752.50;;;18.96;100.00
13209;BME280;6669;42.678;23.332;2023-07-24T03:44:31;94756.97;;;18.95;100.00
13209;BME280;6669;42.678;23.332;2023-07-24T03:46:59;94744.47;;;18.91;100.00
13209;BME280;6669;42.678;23.332;2023-07-24T03:49:27;94756.97;;;18.95;100.00
13209;BME280;6669;42.678;23.332;2023-07-24T03:51:55;94764.22;;;19.00;100.00
13209;BME280;6669;42.678;23.332;2023-07-24T03:54:23;94760.78;;;19.00;100.00
13209;BME280;6669;42.678;23.332;2023-07-24T03:56:51;94760.78;;;19.00;100.00
13209;BME280;6669;42.678;23.332;2023-07-24T03:59:19;94768.75;;;18.93;100.00
13209;BME280;6669;42.678;23.332;2023-07-24T04:01:48;94763.91;;;18.90;100.00
13209;BME280;6669;42.678;23.332;2023-07-24T04:04:16;94762.91;;;18.91;100.00
13209;BME280;6669;42.678;23.332;2023-07-24T04:06:45;94750.75;;;18.90;100.00
13209;BME280;6669;42.678;23.332;2023-07-24T04:09:13;94766.69;;;18.95;100.00
13209;BME280;6669;42.678;23.332;2023-07-24T04:11:42;94770.56;;;18.92;100.00
13209;BME280;6669;42.678;23.332;2023-07-24T04:14:11;94775.19;;;18.97;100.00
13209;BME280;6669;42.678;23.332;2023-07-24T04:16:38;94764.06;;;18.95;100.00
13209;BME280;6669;42.678;23.332;2023-07-24T04:19:08;94775.09;;;19.04;100.00
13209;BME280;6669;42.678;23.332;2023-07-24T04:21:36;94773.81;;;19.13;100.00
13209;BME280;6669;42.678;23.332;2023-07-24T04:24:04;94770.19;;;19.07;100.00
13209;BME280;6669;42.678;23.332;2023-07-24T04:26:32;94764.78;;;19.21;100.00
13209;BME280;6669;42.678;23.332;2023-07-24T04:29:03;94772.72;;;19.33;100.00
13209;BME280;6669;42.678;23.332;2023-07-24T04:31:31;94775.22;;;19.27;100.00
13209;BME280;6669;42.678;23.332;2023-07-24T04:33:59;94775.88;;;19.23;100.00
13209;BME280;6669;42.678;23.332;2023-07-24T04:36:29;94774.78;;;19.31;100.00
13209;BME280;6669;42.678;23.332;2023-07-24T04:38:57;94769.06;;;19.34;100.00
13209;BME280;6669;42.678;23.332;2023-07-24T04:41:25;94774.38;;;19.46;100.00
13209;BME280;6669;42.678;23.332;2023-07-24T04:43:53;94774.44;;;19.57;100.00
13209;BME280;6669;42.678;23.332;2023-07-24T04:46:21;94780.41;;;19.65;100.00
13209;BME280;6669;42.678;23.332;2023-07-24T04:48:49;94780.00;;;19.80;100.00
13209;BME280;6669;42.678;23.332;2023-07-24T04:51:17;94787.41;;;19.89;100.00
13209;BME280;6669;42.678;23.332;2023-07-24T04:53:46;94787.41;;;19.89;100.00
13209;BME280;6669;42.678;23.332;2023-07-24T04:56:14;94780.75;;;19.87;100.00
13209;BME280;6669;42.678;23.332;2023-07-24T04:58:43;94784.06;;;19.82;100.00
13209;BME280;6669;42.678;23.332;2023-07-24T05:01:10;94778.09;;;19.87;100.00
13209;BME280;6669;42.678;23.332;2023-07-24T05:03:38;94790.25;;;19.88;100.00
13209;BME280;6669;42.678;23.332;2023-07-24T05:06:06;94786.72;;;19.94;100.00
13209;BME280;6669;42.678;23.332;2023-07-24T05:08:35;94773.50;;;19.94;100.00
13209;BME280;6669;42.678;23.332;2023-07-24T05:11:04;94781.00;;;20.09;100.00
13209;BME280;6669;42.678;23.332;2023-07-24T05:13:32;94779.41;;;20.20;100.00
13209;BME280;6669;42.678;23.332;2023-07-24T05:16:00;94783.44;;;20.34;100.00
13209;BME280;6669;42.678;23.332;2023-07-24T05:18:28;94787.22;;;20.50;100.00
13209;BME280;6669;42.678;23.332;2023-07-24T05:20:56;94782.28;;;20.54;100.00
13209;BME280;6669;42.678;23.332;2023-07-24T05:23:24;94780.56;;;20.60;100.00
13209;BME280;6669;42.678;23.332;2023-07-24T05:25:56;94782.75;;;20.63;100.00
13209;BME280;6669;42.678;23.332;2023-07-24T05:28:27;94773.91;;;20.57;100.00
13209;BME280;6669;42.678;23.332;2023-07-24T05:30:55;94774.50;;;20.71;100.00
13209;BME280;6669;42.678;23.332;2023-07-24T05:33:23;94775.84;;;20.85;100.00
13209;BME280;6669;42.678;23.332;2023-07-24T05:35:51;94783.06;;;21.02;100.00
13209;BME280;6669;42.678;23.332;2023-07-24T05:38:19;94776.84;;;21.08;100.00
13209;BME280;6669;42.678;23.332;2023-07-24T05:40:54;94770.16;;;21.17;100.00
13209;BME280;6669;42.678;23.332;2023-07-24T05:43:22;94767.06;;;21.20;100.00
13209;BME280;6669;42.678;23.332;2023-07-24T05:45:52;94763.53;;;21.32;100.00
13209;BME280;6669;42.678;23.332;2023-07-24T05:48:20;94766.06;;;21.38;100.00
13209;BME280;6669;42.678;23.332;2023-07-24T05:50:48;94766.78;;;21.51;100.00
13209;BME280;6669;42.678;23.332;2023-07-24T05:53:17;94759.09;;;21.49;100.00
13209;BME280;6669;42.678;23.332;2023-07-24T05:55:45;94757.16;;;21.57;100.00
13209;BME280;6669;42.678;23.332;2023-07-24T05:58:13;94756.75;;;21.65;100.00
13209;BME280;6669;42.678;23.332;2023-07-24T06:00:42;94759.03;;;21.73;100.00
13209;BME280;6669;42.678;23.332;2023-07-24T06:03:11;94754.94;;;21.82;100.00
13209;BME280;6669;42.678;23.332;2023-07-24T06:05:39;94749.72;;;21.87;100.00
13209;BME280;6669;42.678;23.332;2023-07-24T06:08:07;94742.28;;;22.01;100.00
13209;BME280;6669;42.678;23.332;2023-07-24T06:10:38;94745.97;;;22.00;100.00
13209;BME280;6669;42.678;23.332;2023-07-24T06:13:06;94742.84;;;22.03;100.00
13209;BME280;6669;42.678;23.332;2023-07-24T06:15:34;94737.31;;;22.05;100.00
13209;BME280;6669;42.678;23.332;2023-07-24T06:18:02;94747.25;;;22.15;100.00
13209;BME280;6669;42.678;23.332;2023-07-24T06:20:32;94742.50;;;22.17;100.00
13209;BME280;6669;42.678;23.332;2023-07-24T06:23:00;94747.34;;;22.37;100.00
13209;BME280;6669;42.678;23.332;2023-07-24T06:25:30;94744.84;;;22.47;100.00
13209;BME280;6669;42.678;23.332;2023-07-24T06:27:58;94746.19;;;22.50;100.00
13209;BME280;6669;42.678;23.332;2023-07-24T06:30:26;94747.63;;;22.58;100.00
13209;BME280;6669;42.678;23.332;2023-07-24T06:32:54;94750.41;;;22.68;100.00
13209;BME280;6669;42.678;23.332;2023-07-24T06:35:22;94745.69;;;22.70;100.00
13209;BME280;6669;42.678;23.332;2023-07-24T06:37:52;94748.13;;;22.77;100.00
13209;BME280;6669;42.678;23.332;2023-07-24T06:40:20;94744.44;;;22.78;100.00
13209;BME280;6669;42.678;23.332;2023-07-24T06:42:48;94747.97;;;22.83;100.00
13209;BME280;6669;42.678;23.332;2023-07-24T06:45:16;94745.75;;;22.75;100.00
13209;BME280;6669;42.678;23.332;2023-07-24T06:47:43;94747.28;;;22.71;100.00
13209;BME280;6669;42.678;23.332;2023-07-24T06:50:11;94737.59;;;22.82;100.00
13209;BME280;6669;42.678;23.332;2023-07-24T06:52:39;94743.72;;;22.82;100.00
13209;BME280;6669;42.678;23.332;2023-07-24T06:55:09;94746.06;;;22.79;100.00
13209;BME280;6669;42.678;23.332;2023-07-24T06:57:37;94746.91;;;22.84;100.00
13209;BME280;6669;42.678;23.332;2023-07-24T07:00:06;94740.69;;;22.96;100.00
13209;BME280;6669;42.678;23.332;2023-07-24T07:02:38;94754.78;;;23.18;100.00
13209;BME280;6669;42.678;23.332;2023-07-24T07:05:06;94758.09;;;23.31;100.00
13209;BME280;6669;42.678;23.332;2023-07-24T07:07:34;94749.22;;;23.42;100.00
13209;BME280;6669;42.678;23.332;2023-07-24T07:10:03;94752.22;;;23.51;100.00
13209;BME280;6669;42.678;23.332;2023-07-24T07:12:33;94755.75;;;23.62;100.00
13209;BME280;6669;42.678;23.332;2023-07-24T07:15:01;94750.31;;;23.46;100.00
13209;BME280;6669;42.678;23.332;2023-07-24T07:17:29;94755.19;;;23.55;100.00
13209;BME280;6669;42.678;23.332;2023-07-24T07:19:57;94751.50;;;23.61;100.00
13209;BME280;6669;42.678;23.332;2023-07-24T07:22:25;94752.16;;;23.73;100.00
13209;BME280;6669;42.678;23.332;2023-07-24T07:24:53;94741.56;;;23.78;100.00
13209;BME280;6669;42.678;23.332;2023-07-24T07:27:22;94740.75;;;23.73;100.00
13209;BME280;6669;42.678;23.332;2023-07-24T07:29:51;94739.59;;;23.91;100.00
13209;BME280;6669;42.678;23.332;2023-07-24T07:32:19;94738.03;;;23.95;100.00
13209;BME280;6669;42.678;23.332;2023-07-24T07:34:47;94735.72;;;24.04;100.00
13209;BME280;6669;42.678;23.332;2023-07-24T07:37:15;94740.00;;;24.10;100.00
13209;BME280;6669;42.678;23.332;2023-07-24T07:39:43;94734.47;;;24.16;100.00
13209;BME280;6669;42.678;23.332;2023-07-24T07:42:11;94728.91;;;24.18;100.00
13209;BME280;6669;42.678;23.332;2023-07-24T07:44:44;94735.66;;;24.31;100.00
13209;BME280;6669;42.678;23.332;2023-07-24T07:47:13;94734.63;;;24.42;100.00
13209;BME280;6669;42.678;23.332;2023-07-24T07:49:41;94736.81;;;24.45;100.00
13209;BME280;6669;42.678;23.332;2023-07-24T07:52:09;94734.53;;;24.64;100.00
13209;BME280;6669;42.678;23.332;2023-07-24T07:54:37;94732.97;;;24.69;100.00
13209;BME280;6669;42.678;23.332;2023-07-24T07:57:05;94733.31;;;24.83;100.00
13209;BME280;6669;42.678;23.332;2023-07-24T07:59:33;94728.06;;;25.03;100.00
13209;BME280;6669;42.678;23.332;2023-07-24T08:02:01;94729.97;;;25.18;100.00
13209;BME280;6669;42.678;23.332;2023-07-24T08:04:31;94720.94;;;25.19;100.00
13209;BME280;6669;42.678;23.332;2023-07-24T08:06:59;94735.13;;;25.40;100.00
13209;BME280;6669;42.678;23.332;2023-07-24T08:09:27;94726.06;;;25.41;100.00
13209;BME280;6669;42.678;23.332;2023-07-24T08:11:55;94729.84;;;25.51;100.00
13209;BME280;6669;42.678;23.332;2023-07-24T08:14:23;94731.72;;;25.71;100.00
13209;BME280;6669;42.678;23.332;2023-07-24T08:16:51;94726.66;;;25.85;100.00
13209;BME280;6669;42.678;23.332;2023-07-24T08:19:20;94724.00;;;26.00;100.00
13209;BME280;6669;42.678;23.332;2023-07-24T08:21:49;94717.63;;;26.06;100.00
13209;BME280;6669;42.678;23.332;2023-07-24T08:24:17;94711.22;;;26.18;100.00
13209;BME280;6669;42.678;23.332;2023-07-24T08:26:45;94710.69;;;26.26;100.00
13209;BME280;6669;42.678;23.332;2023-07-24T08:29:13;94708.31;;;26.24;100.00
13209;BME280;6669;42.678;23.332;2023-07-24T08:31:41;94704.03;;;26.34;100.00
13209;BME280;6669;42.678;23.332;2023-07-24T08:34:09;94703.22;;;26.43;100.00
13209;BME280;6669;42.678;23.332;2023-07-24T08:36:37;94698.63;;;26.65;100.00
13209;BME280;6669;42.678;23.332;2023-07-24T08:39:06;94699.09;;;26.87;100.00
13209;BME280;6669;42.678;23.332;2023-07-24T08:41:34;94700.38;;;27.00;100.00
13209;BME280;6669;42.678;23.332;2023-07-24T08:44:05;94693.34;;;27.15;100.00
13209;BME280;6669;42.678;23.332;2023-07-24T08:46:35;94692.50;;;27.24;100.00
13209;BME280;6669;42.678;23.332;2023-07-24T08:49:06;94693.56;;;27.29;100.00
13209;BME280;6669;42.678;23.332;2023-07-24T08:51:35;94687.13;;;27.35;100.00
13209;BME280;6669;42.678;23.332;2023-07-24T08:54:03;94690.09;;;27.28;100.00
13209;BME280;6669;42.678;23.332;2023-07-24T08:56:33;94688.44;;;27.37;100.00
13209;BME280;6669;42.678;23.332;2023-07-24T08:59:01;94688.88;;;27.55;100.00
13209;BME280;6669;42.678;23.332;2023-07-24T09:01:29;94685.78;;;27.77;100.00
13209;BME280;6669;42.678;23.332;2023-07-24T09:03:57;94679.44;;;27.68;100.00
13209;BME280;6669;42.678;23.332;2023-07-24T09:06:26;94688.28;;;27.68;100.00
13209;BME280;6669;42.678;23.332;2023-07-24T09:08:54;94691.22;;;28.01;100.00
13209;BME280;6669;42.678;23.332;2023-07-24T09:11:22;94683.34;;;28.15;100.00
13209;BME280;6669;42.678;23.332;2023-07-24T09:13:52;94683.53;;;28.24;95.86
13209;BME280;6669;42.678;23.332;2023-07-24T09:16:22;94675.63;;;28.14;97.63
13209;BME280;6669;42.678;23.332;2023-07-24T09:18:51;94679.06;;;28.19;98.42
13209;BME280;6669;42.678;23.332;2023-07-24T09:21:29;94680.03;;;28.29;92.55
13209;BME280;6669;42.678;23.332;2023-07-24T09:23:57;94673.84;;;28.33;91.35
13209;BME280;6669;42.678;23.332;2023-07-24T09:26:25;94666.00;;;28.42;95.17
13209;BME280;6669;42.678;23.332;2023-07-24T09:28:55;94666.81;;;28.67;91.68
13209;BME280;6669;42.678;23.332;2023-07-24T09:31:34;94653.25;;;28.82;90.35
13209;BME280;6669;42.678;23.332;2023-07-24T09:34:02;94645.84;;;28.98;92.98
13209;BME280;6669;42.678;23.332;2023-07-24T09:36:37;94658.34;;;29.22;94.71
13209;BME280;6669;42.678;23.332;2023-07-24T09:39:05;94644.34;;;29.30;87.66
13209;BME280;6669;42.678;23.332;2023-07-24T09:41:37;94640.13;;;29.43;87.40
13209;BME280;6669;42.678;23.332;2023-07-24T09:44:11;94633.84;;;29.53;89.65
13209;BME280;6669;42.678;23.332;2023-07-24T09:46:40;94634.16;;;29.65;89.66
13209;BME280;6669;42.678;23.332;2023-07-24T09:49:27;94634.13;;;29.32;78.72
13209;BME280;6669;42.678;23.332;2023-07-24T09:51:58;94626.06;;;29.51;78.48
13209;BME280;6669;42.678;23.332;2023-07-24T09:54:32;94623.25;;;29.62;75.69
13209;BME280;6669;42.678;23.332;2023-07-24T09:57:01;94622.44;;;29.61;77.52
13209;BME280;6669;42.678;23.332;2023-07-24T09:59:48;94611.81;;;29.56;79.43
13209;BME280;6669;42.678;23.332;2023-07-24T10:02:17;94617.50;;;29.68;74.69
13209;BME280;6669;42.678;23.332;2023-07-24T10:04:46;94608.91;;;29.85;73.94
13209;BME280;6669;42.678;23.332;2023-07-24T10:07:14;94597.69;;;30.03;73.90
13209;BME280;6669;42.678;23.332;2023-07-24T10:09:43;94602.84;;;30.13;74.19
13209;BME280;6669;42.678;23.332;2023-07-24T10:12:12;94608.31;;;30.36;72.94
13209;BME280;6669;42.678;23.332;2023-07-24T10:14:40;94599.66;;;30.39;73.66
13209;BME280;6669;42.678;23.332;2023-07-24T10:17:09;94593.13;;;30.45;72.29
13209;BME280;6669;42.678;23.332;2023-07-24T10:19:39;94602.84;;;30.41;70.27
13209;BME280;6669;42.678;23.332;2023-07-24T10:22:09;94596.38;;;30.28;70.61
13209;BME280;6669;42.678;23.332;2023-07-24T10:24:44;94592.59;;;30.15;71.06
13209;BME280;6669;42.678;23.332;2023-07-24T10:27:12;94589.63;;;30.30;73.10
13209;BME280;6669;42.678;23.332;2023-07-24T10:29:40;94585.59;;;30.33;72.07
13209;BME280;6669;42.678;23.332;2023-07-24T10:32:18;94586.75;;;30.69;74.69
13209;BME280;6669;42.678;23.332;2023-07-24T10:34:55;94575.34;;;30.63;74.78
13209;BME280;6669;42.678;23.332;2023-07-24T10:37:31;94576.56;;;30.93;74.52
13209;BME280;6669;42.678;23.332;2023-07-24T10:40:00;94579.91;;;30.99;73.96
13209;BME280;6669;42.678;23.332;2023-07-24T10:42:30;94578.28;;;31.26;76.99
13209;BME280;6669;42.678;23.332;2023-07-24T10:45:07;94568.66;;;31.25;75.91
13209;BME280;6669;42.678;23.332;2023-07-24T10:47:38;94573.91;;;31.30;76.13
13209;BME280;6669;42.678;23.332;2023-07-24T10:50:07;94576.28;;;31.54;76.30
13209;BME280;6669;42.678;23.332;2023-07-24T10:52:35;94569.31;;;31.76;74.72
13209;BME280;6669;42.678;23.332;2023-07-24T10:55:04;94565.53;;;31.77;72.82
13209;BME280;6669;42.678;23.332;2023-07-24T10:57:32;94551.56;;;31.66;70.57
13209;BME280;6669;42.678;23.332;2023-07-24T11:00:00;94559.28;;;31.45;70.69
13209;BME280;6669;42.678;23.332;2023-07-24T11:02:28;94558.34;;;31.63;65.25
13209;BME280;6669;42.678;23.332;2023-07-24T11:04:59;94567.72;;;31.75;62.07
13209;BME280;6669;42.678;23.332;2023-07-24T11:07:33;94554.06;;;32.25;61.47
13209;BME280;6669;42.678;23.332;2023-07-24T11:10:01;94558.38;;;32.53;59.74
13209;BME280;6669;42.678;23.332;2023-07-24T11:12:29;94559.56;;;32.78;58.70
13209;BME280;6669;42.678;23.332;2023-07-24T11:14:58;94545.31;;;33.21;59.52
13209;BME280;6669;42.678;23.332;2023-07-24T11:17:33;94544.25;;;33.40;57.55
13209;BME280;6669;42.678;23.332;2023-07-24T11:20:08;94549.00;;;32.99;59.03
13209;BME280;6669;42.678;23.332;2023-07-24T11:22:38;94546.75;;;33.19;59.86
13209;BME280;6669;42.678;23.332;2023-07-24T11:25:08;94533.44;;;33.49;60.83
13209;BME280;6669;42.678;23.332;2023-07-24T11:27:40;94534.94;;;34.23;57.36
13209;BME280;6669;42.678;23.332;2023-07-24T11:30:11;94530.38;;;34.15;56.30
13209;BME280;6669;42.678;23.332;2023-07-24T11:32:40;94529.91;;;34.73;53.75
13209;BME280;6669;42.678;23.332;2023-07-24T11:35:10;94503.69;;;34.52;53.34
13209;BME280;6669;42.678;23.332;2023-07-24T11:37:38;94511.69;;;34.70;54.13
13209;BME280;6669;42.678;23.332;2023-07-24T11:40:07;94511.13;;;34.85;54.95
13209;BME280;6669;42.678;23.332;2023-07-24T11:42:38;94511.94;;;35.19;54.45
13209;BME280;6669;42.678;23.332;2023-07-24T11:45:08;94515.06;;;34.88;55.29
13209;BME280;6669;42.678;23.332;2023-07-24T11:47:44;94516.59;;;34.08;56.51
13209;BME280;6669;42.678;23.332;2023-07-24T11:50:14;94532.97;;;34.03;58.84
13209;BME280;6669;42.678;23.332;2023-07-24T11:52:44;94502.13;;;34.51;57.26
13209;BME280;6669;42.678;23.332;2023-07-24T11:55:13;94504.84;;;34.73;55.92
13209;BME280;6669;42.678;23.332;2023-07-24T11:57:41;94508.91;;;34.28;57.91
13209;BME280;6669;42.678;23.332;2023-07-24T12:00:18;94508.47;;;34.17;59.68
13209;BME280;6669;42.678;23.332;2023-07-24T12:02:47;94498.63;;;34.21;59.42
13209;BME280;6669;42.678;23.332;2023-07-24T12:05:16;94498.69;;;34.03;59.09
13209;BME280;6669;42.678;23.332;2023-07-24T12:07:45;94498.28;;;33.93;58.73
13209;BME280;6669;42.678;23.332;2023-07-24T12:10:25;94490.19;;;33.45;61.21
13209;BME280;6669;42.678;23.332;2023-07-24T12:12:58;94495.59;;;33.28;61.13
13209;BME280;6669;42.678;23.332;2023-07-24T12:15:26;94490.41;;;33.70;61.67
13209;BME280;6669;42.678;23.332;2023-07-24T12:17:54;94494.59;;;34.06;59.42
13209;BME280;6669;42.678;23.332;2023-07-24T12:20:25;94498.78;;;34.54;58.07
13209;BME280;6669;42.678;23.332;2023-07-24T12:22:53;94497.91;;;35.05;57.96
13209;BME280;6669;42.678;23.332;2023-07-24T12:25:21;94487.03;;;35.14;56.57
13209;BME280;6669;42.678;23.332;2023-07-24T12:27:49;94477.50;;;34.53;57.66
13209;BME280;6669;42.678;23.332;2023-07-24T12:30:17;94485.06;;;34.30;58.60
13209;BME280;6669;42.678;23.332;2023-07-24T12:32:45;94486.84;;;33.96;58.53
13209;BME280;6669;42.678;23.332;2023-07-24T12:35:13;94484.09;;;33.66;60.59
13209;BME280;6669;42.678;23.332;2023-07-24T12:37:44;94472.38;;;33.62;59.61
13209;BME280;6669;42.678;23.332;2023-07-24T12:40:13;94480.91;;;33.64;57.50
13209;BME280;6669;42.678;23.332;2023-07-24T12:42:41;94477.59;;;33.67;56.85
13209;BME280;6669;42.678;23.332;2023-07-24T12:45:09;94467.50;;;34.23;57.58
13209;BME280;6669;42.678;23.332;2023-07-24T12:47:37;94463.28;;;34.86;55.28
13209;BME280;6669;42.678;23.332;2023-07-24T12:50:06;94470.13;;;35.05;55.33
13209;BME280;6669;42.678;23.332;2023-07-24T12:52:34;94467.56;;;35.08;55.84
13209;BME280;6669;42.678;23.332;2023-07-24T12:55:05;94463.88;;;34.92;54.94
13209;BME280;6669;42.678;23.332;2023-07-24T12:57:33;94469.78;;;35.40;55.13
13209;BME280;6669;42.678;23.332;2023-07-24T13:00:01;94452.72;;;35.85;54.99
13209;BME280;6669;42.678;23.332;2023-07-24T13:02:31;94461.63;;;36.35;52.10